Terminal Aerodrome Forecast
Issued by NWS

Home | Current Version | Previous Version | Text Only | Print | Product List | Glossary On
Versions: 1 2 3 4 5 6 7 8 9 10 11 12 13 14 15 16 17 18 19 20 21 22
000
FTUS45 KREV 222300
TAFTRK
TAF
KTRK 222320Z 2300/2324 22008KT P6SM BKN160
     FM231200 21010G17KT P6SM BKN160
     FM231800 22012G22KT P6SM BKN090 OVC140
      AMD NOT SKED 2302/2312=

USA.gov is the U.S. government's official web portal to all federal, state and local government web resources and services.